Terminal Aerodrome Forecast
Issued by NWS

Home | Current Version | Previous Version | Text Only | Print | Product List | Glossary On
Versions: 1 2 3 4 5 6 7 8 9 10 11 12 13 14 15 16 17 18 19 20 21 22 23 24 25 26 27 28 29 30 31 32 33 34 35 36 37 38 39 40 41 42 43 44 45 46
000
FTUS45 KBOU 241731
TAFAPA
TAF
KAPA 241731Z 2418/2518 15011G20KT P6SM SCT045 SCT060 SCT120
     FM241830 16010G18KT P6SM VCTS SCT040 SCT070CB BKN120
     FM242300 01011KT P6SM FEW080 SCT120
     FM250300 26009KT P6SM FEW220
     FM250700 19009KT P6SM SKC=

USA.gov is the U.S. government's official web portal to all federal, state and local government web resources and services.